Time;durP1;ratioP1;P1;durP2;ratioP2;P2;SDS_P1;SDS_P2;PMS_P1;PMS_P2;Temp;Humidity;BMP_temperature;BMP_pressure;BME280_temperature;BME280_humidity;BME280_pressure;Samples;Min_cycle;Max_cycle;Signal;HPM_P1;HPM_P2
2024/01/15 00:02:08;;;;;;;13.73;4.60;;;;;;;9.59;84.30;99594.25;4990236;28;20093;-78
2024/01/15 00:04:38;;;;;;;13.43;4.30;;;;;;;9.60;84.02;99590.72;4989638;28;20031;-78
2024/01/15 00:07:04;;;;;;;11.52;4.80;;;;;;;9.61;84.01;99591.59;4988702;28;20035;-78
2024/01/15 00:09:29;;;;;;;11.53;5.20;;;;;;;9.60;83.89;99590.72;4989717;28;20182;-78
2024/01/15 00:11:54;;;;;;;14.57;5.13;;;;;;;9.61;84.04;99588.97;4988292;28;20030;-78
2024/01/15 00:14:20;;;;;;;14.52;4.70;;;;;;;9.61;84.10;99578.47;4989219;28;20037;-78
2024/01/15 00:16:46;;;;;;;15.03;4.80;;;;;;;9.61;84.44;99574.06;4990303;28;20061;-78
2024/01/15 00:19:11;;;;;;;15.27;5.25;;;;;;;9.62;84.07;99572.31;4989941;28;20615;-79
2024/01/15 00:21:37;;;;;;;13.70;4.70;;;;;;;9.61;84.29;99573.22;4990341;28;20033;-78
2024/01/15 00:24:02;;;;;;;16.10;4.77;;;;;;;9.61;84.57;99573.22;4974046;28;20037;-78
2024/01/15 00:26:28;;;;;;;15.05;4.68;;;;;;;9.62;84.36;99564.44;4996978;28;20030;-77
2024/01/15 00:28:53;;;;;;;13.63;4.20;;;;;;;9.62;84.19;99567.91;4990171;28;20030;-78
2024/01/15 00:31:18;;;;;;;14.67;4.70;;;;;;;9.61;84.07;99560.06;4989928;28;20072;-78
2024/01/15 00:33:44;;;;;;;12.13;4.37;;;;;;;9.61;84.29;99565.31;5005532;28;20014;-78
2024/01/15 00:36:09;;;;;;;13.43;4.83;;;;;;;9.59;84.42;99559.22;5009628;28;20635;-78
2024/01/15 00:38:35;;;;;;;12.85;4.68;;;;;;;9.59;83.99;99557.44;5009867;28;20398;-79
2024/01/15 00:41:00;;;;;;;16.63;5.10;;;;;;;9.57;84.44;99547.84;5010036;28;20116;-79
2024/01/15 00:43:25;;;;;;;12.07;4.40;;;;;;;9.55;84.33;99557.50;5009819;28;20061;-78
2024/01/15 00:45:51;;;;;;;11.57;4.40;;;;;;;9.55;84.07;99544.38;5004864;28;20027;-78
2024/01/15 00:48:16;;;;;;;15.93;5.53;;;;;;;9.53;84.24;99551.41;4989778;28;20081;-78
2024/01/15 00:50:41;;;;;;;10.15;4.80;;;;;;;9.51;84.28;99563.66;4990205;28;20035;-78
2024/01/15 00:53:07;;;;;;;16.90;7.33;;;;;;;9.48;84.44;99560.19;4990198;28;20027;-78
2024/01/15 00:55:32;;;;;;;15.47;6.40;;;;;;;9.48;83.96;99568.06;4988728;28;20043;-78
2024/01/15 00:57:58;;;;;;;12.80;5.47;;;;;;;9.50;84.01;99570.69;4990213;28;20030;-78
2024/01/15 01:00:23;;;;;;;12.07;5.10;;;;;;;9.49;84.15;99566.31;4972391;28;20050;-78
2024/01/15 01:02:48;;;;;;;12.30;5.03;;;;;;;9.49;84.49;99571.59;4989941;28;20110;-78
2024/01/15 01:05:14;;;;;;;13.43;5.30;;;;;;;9.48;84.36;99565.44;4989592;28;20171;-78
2024/01/15 01:07:39;;;;;;;15.67;6.10;;;;;;;9.50;84.36;99562.81;4989873;28;20039;-78
2024/01/15 01:10:05;;;;;;;13.73;5.97;;;;;;;9.49;84.13;99563.69;4989726;28;20034;-78
2024/01/15 01:12:30;;;;;;;13.75;6.15;;;;;;;9.51;84.19;99558.41;4990029;28;20510;-78
2024/01/15 01:14:56;;;;;;;13.60;5.20;;;;;;;9.51;84.20;99542.63;4989528;28;20035;-78
2024/01/15 01:17:22;;;;;;;13.07;5.38;;;;;;;9.51;84.38;99537.38;4989874;28;20038;-78
2024/01/15 01:19:47;;;;;;;14.17;5.60;;;;;;;9.51;84.14;99533.00;4988949;28;20442;-78
2024/01/15 01:22:13;;;;;;;13.93;5.47;;;;;;;9.51;83.75;99526.88;4971553;28;20088;-78
2024/01/15 01:24:38;;;;;;;12.00;5.70;;;;;;;9.45;84.50;99525.22;4995880;28;20096;-78
2024/01/15 01:27:04;;;;;;;18.23;5.83;;;;;;;9.43;84.13;99525.22;4989246;28;20081;-78
2024/01/15 01:29:29;;;;;;;12.10;5.40;;;;;;;9.42;84.64;99522.63;4989802;28;20154;-78
2024/01/15 01:31:56;;;;;;;13.50;5.10;;;;;;;9.42;84.51;99520.00;4973270;28;20035;-77
2024/01/15 01:34:21;;;;;;;13.40;5.13;;;;;;;9.41;84.13;99508.59;4993355;28;20109;-77
2024/01/15 01:36:47;;;;;;;14.70;5.22;;;;;;;9.40;84.35;99498.97;4988894;28;20067;-78
2024/01/15 01:39:12;;;;;;;13.70;5.50;;;;;;;9.41;84.31;99499.84;5010801;28;20065;-78
2024/01/15 01:41:39;;;;;;;11.17;4.93;;;;;;;9.40;84.26;99500.72;4991608;28;20046;-78
2024/01/15 01:44:04;;;;;;;12.80;5.57;;;;;;;9.38;84.51;99498.13;4991939;28;20490;-78
2024/01/15 01:46:30;;;;;;;10.90;5.00;;;;;;;9.37;84.81;99498.13;4992281;28;20129;-77
2024/01/15 01:48:56;;;;;;;12.45;5.38;;;;;;;9.36;84.46;99491.13;4992616;28;20065;-78
2024/01/15 01:51:23;;;;;;;12.88;4.75;;;;;;;9.38;84.49;99490.25;4991940;28;20061;-78
2024/01/15 01:53:49;;;;;;;14.30;5.53;;;;;;;9.35;84.32;99495.53;4992966;28;20066;-78
2024/01/15 01:56:15;;;;;;;12.63;4.80;;;;;;;9.34;84.30;99499.91;4992649;28;20026;-78
2024/01/15 01:58:41;;;;;;;13.55;5.40;;;;;;;9.31;84.56;99496.47;4992865;28;20045;-77
2024/01/15 02:01:07;;;;;;;11.53;5.23;;;;;;;9.31;84.20;99499.09;4992793;28;20026;-78
2024/01/15 02:03:33;;;;;;;11.07;4.90;;;;;;;9.30;84.43;99499.97;4992739;28;20081;-78
2024/01/15 02:06:00;;;;;;;14.77;5.60;;;;;;;9.30;84.20;99503.47;4992554;28;20048;-78
2024/01/15 02:08:26;;;;;;;12.00;5.77;;;;;;;9.29;84.33;99501.72;4992578;28;20288;-78
2024/01/15 02:10:51;;;;;;;12.52;5.15;;;;;;;9.28;84.38;99509.59;4992505;28;20026;-78
2024/01/15 02:13:18;;;;;;;14.10;6.07;;;;;;;9.25;84.71;99510.53;4992525;28;20505;-78
2024/01/15 02:15:43;;;;;;;11.32;5.53;;;;;;;9.25;84.33;99504.38;4992608;28;20030;-78
2024/01/15 02:18:09;;;;;;;13.67;5.60;;;;;;;9.24;84.52;99507.91;4992648;28;20438;-78
2024/01/15 02:20:35;;;;;;;12.48;5.38;;;;;;;9.25;84.31;99510.53;4992619;28;20027;-78
2024/01/15 02:23:10;;;;;;;11.30;5.57;;;;;;;9.24;84.14;99507.91;4992634;28;20034;-78
2024/01/15 02:25:45;;;;;;;12.82;6.15;;;;;;;9.25;84.31;99507.00;5000121;28;20034;-78
2024/01/15 02:28:12;;;;;;;16.15;6.43;;;;;;;9.24;84.25;99497.41;4992264;28;20030;-77
2024/01/15 02:30:39;;;;;;;16.35;6.97;;;;;;;9.24;84.23;99498.28;4992000;28;20030;-78
2024/01/15 02:33:05;;;;;;;15.95;7.00;;;;;;;9.23;84.23;99495.66;4992495;28;20061;-78
2024/01/15 02:35:31;;;;;;;15.47;7.07;;;;;;;9.21;84.46;99487.81;4996078;28;20602;-78
2024/01/15 02:37:56;;;;;;;15.93;8.13;;;;;;;9.21;84.58;99487.81;5010818;28;20026;-78
2024/01/15 02:40:21;;;;;;;20.43;9.77;;;;;;;9.21;84.28;99486.91;4992498;28;20566;-78
2024/01/15 02:42:47;;;;;;;18.93;8.53;;;;;;;9.20;84.31;99486.06;4992006;28;20049;-77
2024/01/15 02:45:12;;;;;;;18.83;8.53;;;;;;;9.19;84.29;99481.72;4991885;28;20026;-78
2024/01/15 02:47:37;;;;;;;18.93;8.40;;;;;;;9.19;84.08;99481.72;4991688;28;20018;-78
2024/01/15 02:50:03;;;;;;;17.83;8.60;;;;;;;9.16;84.25;99485.22;4991993;28;20277;-78
2024/01/15 02:52:29;;;;;;;17.73;9.37;;;;;;;9.11;84.13;99481.78;4997668;28;20030;-78
2024/01/15 02:54:54;;;;;;;22.02;9.35;;;;;;;9.10;84.32;99472.16;5006960;28;20026;-78
2024/01/15 02:57:22;;;;;;;17.63;8.40;;;;;;;9.09;84.12;99478.31;4991955;28;20162;-77
2024/01/15 02:59:50;;;;;;;18.88;8.68;;;;;;;9.10;84.22;99485.28;4990476;28;20047;-78
2024/01/15 03:02:16;;;;;;;18.97;8.67;;;;;;;9.08;84.31;99476.56;4990745;28;20030;-78
2024/01/15 03:04:44;;;;;;;16.50;8.80;;;;;;;9.04;84.26;99480.09;4991711;28;20137;-78
2024/01/15 03:07:10;;;;;;;18.80;8.87;;;;;;;9.06;84.46;99473.09;4989268;28;20041;-78
2024/01/15 03:09:35;;;;;;;18.90;9.00;;;;;;;9.04;84.39;99465.22;4990706;28;20026;-78
2024/01/15 03:12:01;;;;;;;19.07;9.13;;;;;;;9.01;84.25;99464.38;4990293;28;20026;-77
2024/01/15 03:14:26;;;;;;;18.97;9.30;;;;;;;9.00;84.55;99475.75;4991346;28;20113;-77
2024/01/15 03:16:53;;;;;;;18.73;8.60;;;;;;;9.02;84.58;99469.63;4991567;28;20086;-78
2024/01/15 03:19:18;;;;;;;20.92;8.25;;;;;;;9.04;84.38;99462.59;4991473;28;20585;-78
2024/01/15 03:21:43;;;;;;;16.63;8.23;;;;;;;9.04;84.21;99469.56;4990936;28;20109;-78
2024/01/15 03:24:09;;;;;;;16.97;8.93;;;;;;;9.05;83.99;99473.97;4992964;28;20104;-78
2024/01/15 03:26:34;;;;;;;20.70;9.90;;;;;;;9.02;84.24;99479.22;4997158;28;20395;-78
2024/01/15 03:29:00;;;;;;;23.30;10.13;;;;;;;8.99;84.44;99459.16;4991177;28;20110;-78
2024/01/15 03:31:25;;;;;;;23.20;11.10;;;;;;;9.03;84.67;99457.34;4991087;28;20277;-78
2024/01/15 03:33:50;;;;;;;24.07;10.77;;;;;;;9.01;84.25;99459.13;4991144;28;20033;-78
2024/01/15 03:36:16;;;;;;;22.20;11.53;;;;;;;9.00;84.57;99452.13;5000928;28;20404;-78
2024/01/15 03:38:42;;;;;;;22.47;10.17;;;;;;;8.98;84.41;99448.66;4999496;28;20030;-78
2024/01/15 03:41:07;;;;;;;18.15;9.52;;;;;;;9.02;84.83;99452.97;4991165;28;20022;-78
2024/01/15 03:43:33;;;;;;;21.05;9.90;;;;;;;9.04;84.76;99438.06;4991261;28;20030;-78
2024/01/15 03:45:58;;;;;;;20.00;10.07;;;;;;;9.05;84.65;99434.59;4990794;28;20036;-78
2024/01/15 03:48:24;;;;;;;19.33;9.67;;;;;;;9.05;84.30;99424.06;4990889;28;20100;-78
2024/01/15 03:50:49;;;;;;;17.07;8.87;;;;;;;9.06;84.87;99415.31;4990727;28;20030;-78
2024/01/15 03:53:14;;;;;;;18.80;9.00;;;;;;;9.07;84.50;99417.03;4990517;28;20053;-77
2024/01/15 03:55:40;;;;;;;16.50;8.33;;;;;;;9.09;84.45;99414.38;4990634;28;20057;-78
2024/01/15 03:58:05;;;;;;;17.70;8.57;;;;;;;9.11;nan;99410.88;4990900;28;20042;-78
2024/01/15 04:00:31;;;;;;;16.37;8.50;;;;;;;9.11;84.19;99399.47;4990549;28;20104;-78
2024/01/15 04:02:56;;;;;;;14.83;8.37;;;;;;;9.11;84.64;99402.09;4990547;28;20511;-78
2024/01/15 04:05:21;;;;;;;18.27;8.93;;;;;;;9.12;84.06;99399.47;4990743;28;20026;-77
2024/01/15 04:07:47;;;;;;;19.50;9.47;;;;;;;9.12;84.23;99404.72;4990483;28;20305;-78
2024/01/15 04:10:12;;;;;;;20.90;9.83;;;;;;;9.12;84.38;99406.47;4990637;28;20110;-78
2024/01/15 04:12:38;;;;;;;19.83;9.33;;;;;;;9.11;84.55;99397.75;4990245;28;20069;-78
2024/01/15 04:15:03;;;;;;;20.40;9.77;;;;;;;9.12;84.46;99394.22;4989651;28;20022;-77
2024/01/15 04:17:29;;;;;;;17.85;9.18;;;;;;;9.12;84.15;99386.34;4989709;28;20122;-78
2024/01/15 04:19:55;;;;;;;17.67;8.83;;;;;;;9.13;84.39;99385.44;4990575;28;20109;-78
2024/01/15 04:22:20;;;;;;;16.73;8.77;;;;;;;9.12;84.10;99383.72;4988863;28;20022;-78
2024/01/15 04:24:45;;;;;;;17.17;9.33;;;;;;;9.15;84.22;99388.91;4998395;28;20041;-78
2024/01/15 04:27:11;;;;;;;18.23;8.80;;;;;;;9.16;84.47;99381.91;4989401;28;20044;-78
2024/01/15 04:29:39;;;;;;;17.75;9.35;;;;;;;9.14;84.43;99381.06;4990060;28;20026;-78
2024/01/15 04:32:05;;;;;;;17.03;9.30;;;;;;;9.12;84.29;99383.72;4988896;28;20505;-77
2024/01/15 04:34:31;;;;;;;17.70;9.40;;;;;;;9.12;84.41;99383.72;4990161;28;20118;-78
2024/01/15 04:36:56;;;;;;;16.23;8.57;;;;;;;9.13;84.49;99376.69;4989355;28;20041;-78
2024/01/15 04:39:22;;;;;;;19.00;9.07;;;;;;;9.15;84.08;99375.78;4989595;28;20053;-78
2024/01/15 04:41:48;;;;;;;16.30;8.13;;;;;;;9.15;84.35;99367.91;4989563;28;20049;-78
2024/01/15 04:44:13;;;;;;;17.08;8.52;;;;;;;9.17;84.31;99375.78;4988835;28;20085;-78
2024/01/15 04:46:38;;;;;;;18.60;8.43;;;;;;;9.17;83.95;99371.38;4989355;28;20069;-78
2024/01/15 04:49:04;;;;;;;19.20;9.00;;;;;;;9.19;84.10;99366.13;4988999;28;20030;-77
2024/01/15 04:51:29;;;;;;;18.00;9.23;;;;;;;9.17;84.15;99358.25;4989061;28;20038;-78
2024/01/15 04:53:55;;;;;;;20.77;9.47;;;;;;;9.16;84.23;99359.13;4990169;28;20030;-77
2024/01/15 04:56:20;;;;;;;16.97;8.33;;;;;;;9.13;84.34;99348.69;4990026;28;20289;-78
2024/01/15 04:58:46;;;;;;;20.47;9.13;;;;;;;9.13;84.44;99353.94;4989860;28;20030;-78
2024/01/15 05:01:12;;;;;;;18.58;9.43;;;;;;;9.16;84.32;99348.63;4989972;28;20030;-78
2024/01/15 05:03:37;;;;;;;17.10;8.50;;;;;;;9.16;84.51;99348.63;4989921;28;20034;-77
2024/01/15 05:06:03;;;;;;;19.43;8.40;;;;;;;9.17;84.44;99344.25;4993252;28;20030;-78
2024/01/15 05:08:28;;;;;;;18.60;9.05;;;;;;;9.18;84.23;99349.47;4993723;28;20037;-77
2024/01/15 05:10:53;;;;;;;17.93;9.53;;;;;;;9.21;84.30;99334.56;4993847;28;20497;-78
2024/01/15 05:13:19;;;;;;;18.03;9.47;;;;;;;9.19;84.51;99327.56;4993809;28;20106;-78
2024/01/15 05:15:44;;;;;;;22.80;10.43;;;;;;;9.21;84.17;99332.81;4993665;28;20037;-78
2024/01/15 05:18:09;;;;;;;20.67;10.70;;;;;;;9.21;84.29;99324.06;4993829;28;20030;-78
2024/01/15 05:20:35;;;;;;;21.17;11.40;;;;;;;9.21;84.13;99324.06;4993711;28;20070;-77
2024/01/15 05:23:00;;;;;;;20.30;10.77;;;;;;;9.20;84.38;99323.19;4993783;28;20026;-78
2024/01/15 05:25:26;;;;;;;23.90;12.07;;;;;;;9.21;84.25;99318.81;5001526;28;20030;-78
2024/01/15 05:27:51;;;;;;;19.52;10.55;;;;;;;9.19;84.25;99311.81;4993192;28;20026;-78
2024/01/15 05:30:16;;;;;;;21.27;9.70;;;;;;;9.18;84.26;99314.47;4993235;28;20414;-77
2024/01/15 05:32:42;;;;;;;22.40;9.80;;;;;;;9.18;84.65;99314.47;4993610;28;20045;-77
2024/01/15 05:35:07;;;;;;;22.27;10.83;;;;;;;9.16;84.34;99298.72;4976306;28;20019;-77
2024/01/15 05:37:33;;;;;;;23.97;11.27;;;;;;;9.16;84.26;99296.09;5002983;28;20636;-78
2024/01/15 05:39:58;;;;;;;26.15;11.32;;;;;;;9.15;84.46;99310.13;4975943;28;20030;-78
2024/01/15 05:42:24;;;;;;;20.07;11.13;;;;;;;9.15;84.64;99310.13;4993392;28;20030;-78
2024/01/15 05:44:49;;;;;;;20.77;11.67;;;;;;;9.15;84.30;99307.50;4992935;28;20479;-78
2024/01/15 05:47:14;;;;;;;18.60;9.97;;;;;;;9.13;84.30;99306.66;4993228;28;20030;-78
2024/01/15 05:49:40;;;;;;;23.40;11.38;;;;;;;9.14;84.30;99308.38;4993019;28;20105;-78
2024/01/15 05:52:06;;;;;;;23.53;10.90;;;;;;;9.15;84.32;99299.63;4992220;28;20026;-78
2024/01/15 05:54:31;;;;;;;20.43;10.83;;;;;;;9.16;84.14;99301.34;4992286;28;20026;-78
2024/01/15 05:56:57;;;;;;;26.40;11.88;;;;;;;9.16;84.33;99310.97;4991635;28;20058;-78
2024/01/15 05:59:22;;;;;;;23.10;11.37;;;;;;;9.15;84.31;99314.50;4991279;28;20054;-78
2024/01/15 06:01:47;;;;;;;21.07;10.17;;;;;;;9.13;84.08;99308.41;4992036;28;20031;-78
2024/01/15 06:04:13;;;;;;;23.98;12.32;;;;;;;9.12;84.37;99309.28;4992189;28;20030;-78
2024/01/15 06:06:38;;;;;;;26.57;12.47;;;;;;;9.11;84.17;99308.44;4972953;28;20554;-78
2024/01/15 06:09:05;;;;;;;22.37;11.60;;;;;;;9.13;84.59;99306.66;4992536;28;20053;-78
2024/01/15 06:11:34;;;;;;;32.80;15.00;;;;;;;9.13;84.53;99306.66;4992372;28;20042;-78
2024/01/15 06:14:00;;;;;;;27.60;12.38;;;;;;;9.12;84.25;99304.03;4992369;28;20085;-78
2024/01/15 06:16:26;;;;;;;31.60;14.23;;;;;;;9.12;84.47;99310.16;4991844;28;20026;-78
2024/01/15 06:18:51;;;;;;;26.85;12.73;;;;;;;9.12;84.47;99304.91;4992835;28;20037;-78
2024/01/15 06:21:17;;;;;;;27.77;13.10;;;;;;;9.12;84.26;99306.66;4992769;28;20040;-78
2024/01/15 06:23:43;;;;;;;25.55;11.75;;;;;;;9.12;84.61;99302.28;4992385;28;20061;-78
2024/01/15 06:26:11;;;;;;;25.47;13.20;;;;;;;9.13;84.58;99306.66;4999850;28;20053;-78
2024/01/15 06:28:40;;;;;;;22.83;11.10;;;;;;;9.13;84.19;99295.25;4990475;28;20097;-78
2024/01/15 06:31:09;;;;;;;23.08;11.45;;;;;;;9.15;84.13;99309.25;4990276;28;20030;-79
2024/01/15 06:33:34;;;;;;;23.00;12.10;;;;;;;9.15;84.35;99304.88;4990533;28;20030;-78
2024/01/15 06:35:59;;;;;;;23.87;11.83;;;;;;;9.15;84.52;99299.63;4996749;28;20506;-78
2024/01/15 06:38:25;;;;;;;21.23;10.47;;;;;;;9.14;84.26;99300.50;4992068;28;20121;-79
2024/01/15 06:40:51;;;;;;;19.87;10.67;;;;;;;9.17;84.43;99299.63;4988723;28;20476;-79
2024/01/15 06:43:17;;;;;;;22.13;10.55;;;;;;;9.16;84.15;99295.22;4994282;28;20516;-78
2024/01/15 06:45:46;;;;;;;21.25;9.95;;;;;;;9.17;84.52;99287.31;4990980;28;20062;-78
2024/01/15 06:48:14;;;;;;;19.93;11.57;;;;;;;9.18;84.33;99280.34;4990896;28;20034;-79
2024/01/15 06:50:40;;;;;;;26.23;13.63;;;;;;;9.19;84.38;99279.44;4990854;28;20034;-79
2024/01/15 06:53:05;;;;;;;23.30;11.52;;;;;;;9.18;84.46;99277.72;4991582;28;20061;-78
2024/01/15 06:55:30;;;;;;;23.07;11.87;;;;;;;9.19;84.30;99285.53;4991326;28;20548;-79
2024/01/15 06:57:56;;;;;;;23.07;11.23;;;;;;;9.19;84.50;99276.81;4991415;28;20105;-79
2024/01/15 07:00:21;;;;;;;21.73;10.75;;;;;;;9.21;84.62;99276.78;4990318;28;20038;-79
2024/01/15 07:02:47;;;;;;;19.83;9.97;;;;;;;9.20;84.18;99270.66;4991175;28;20053;-79
2024/01/15 07:05:12;;;;;;;20.37;9.97;;;;;;;9.23;84.33;99264.47;4995142;28;20145;-79
2024/01/15 07:07:37;;;;;;;21.43;9.83;;;;;;;9.22;84.53;99266.25;4991420;28;20030;-79
2024/01/15 07:10:04;;;;;;;22.10;10.17;;;;;;;9.26;84.46;99274.94;4974151;28;20117;-79
2024/01/15 07:12:30;;;;;;;20.20;10.00;;;;;;;9.26;84.36;99269.69;4991690;28;20023;-79
2024/01/15 07:14:56;;;;;;;20.27;10.52;;;;;;;9.27;84.64;99266.16;4989851;28;20034;-79
2024/01/15 07:17:21;;;;;;;20.95;9.75;;;;;;;9.27;84.67;99266.16;4991493;28;20034;-80
2024/01/15 07:19:47;;;;;;;21.17;10.33;;;;;;;9.25;84.76;99265.31;4991509;28;20674;-79
2024/01/15 07:22:13;;;;;;;17.77;9.07;;;;;;;9.26;84.69;99269.69;4991536;28;20073;-79
2024/01/15 07:24:38;;;;;;;21.40;10.00;;;;;;;9.26;84.63;99269.69;4998403;28;20034;-79
2024/01/15 07:27:04;;;;;;;20.47;9.90;;;;;;;9.26;84.80;99262.69;4991834;28;20560;-80
2024/01/15 07:29:30;;;;;;;21.13;11.00;;;;;;;9.27;84.70;99255.66;4990146;28;20026;-79
2024/01/15 07:31:56;;;;;;;25.17;11.93;;;;;;;9.27;84.83;99253.03;4991356;28;20037;-80
2024/01/15 07:34:22;;;;;;;21.97;11.60;;;;;;;9.26;84.49;99251.28;4991447;28;20018;-80
2024/01/15 07:36:47;;;;;;;23.13;11.80;;;;;;;9.27;85.05;99260.91;5005256;28;20026;-80
2024/01/15 07:39:13;;;;;;;24.10;12.40;;;;;;;9.27;85.04;99263.53;5010848;28;20041;-80
2024/01/15 07:41:39;;;;;;;23.00;10.88;;;;;;;9.26;84.73;99273.19;4993136;28;20573;-80
2024/01/15 07:44:05;;;;;;;23.70;12.23;;;;;;;9.28;84.69;99275.78;4990992;28;20030;-80
2024/01/15 07:46:30;;;;;;;26.98;11.95;;;;;;;9.26;84.83;99269.69;4991084;28;20030;-80
2024/01/15 07:48:57;;;;;;;24.30;10.77;;;;;;;9.25;84.97;99263.59;4990552;28;20101;-79
2024/01/15 07:51:23;;;;;;;24.38;11.77;;;;;;;9.27;84.92;99272.31;4991115;28;20026;-80
2024/01/15 07:53:48;;;;;;;25.48;12.65;;;;;;;9.30;85.18;99271.41;4990732;28;20030;-79
2024/01/15 07:56:14;;;;;;;29.20;14.80;;;;;;;9.31;84.96;99274.00;4990620;28;20045;-79
2024/01/15 07:58:39;;;;;;;28.13;14.60;;;;;;;9.31;84.76;99283.66;4990511;28;20041;-81
2024/01/15 08:01:06;;;;;;;27.67;13.80;;;;;;;9.32;85.00;99274.88;4973133;28;20038;-80
2024/01/15 08:03:31;;;;;;;30.88;14.85;;;;;;;9.32;85.06;99275.72;4990736;28;20109;-79
2024/01/15 08:05:59;;;;;;;32.23;16.80;;;;;;;9.34;84.88;99279.19;4990474;28;20129;-79
2024/01/15 08:08:25;;;;;;;30.98;17.10;;;;;;;9.34;84.86;99283.59;4990223;28;20032;-80
2024/01/15 08:10:52;;;;;;;33.47;16.23;;;;;;;9.32;85.10;99286.22;4990590;28;20293;-79
2024/01/15 08:13:17;;;;;;;31.48;15.23;;;;;;;9.33;85.08;99284.50;4990682;28;20037;-79
2024/01/15 08:15:42;;;;;;;29.60;14.77;;;;;;;9.35;85.41;99293.22;4972715;28;20034;-79
2024/01/15 08:18:08;;;;;;;28.43;13.53;;;;;;;9.36;85.16;99294.94;4990357;28;20113;-80
2024/01/15 08:20:34;;;;;;;28.60;13.23;;;;;;;9.38;85.05;99294.91;4990430;28;20029;-79
2024/01/15 08:22:59;;;;;;;29.20;13.30;;;;;;;9.39;84.86;99296.66;4990321;28;20399;-80
2024/01/15 08:25:25;;;;;;;30.67;14.80;;;;;;;9.41;84.85;99293.13;4999469;28;20398;-79
2024/01/15 08:27:51;;;;;;;30.87;14.73;;;;;;;9.44;84.88;99303.56;4990160;28;20270;-80
2024/01/15 08:30:18;;;;;;;30.90;15.75;;;;;;;9.43;85.45;99293.97;4989984;28;20031;-80
2024/01/15 08:32:46;;;;;;;26.60;13.85;;;;;;;9.43;85.45;99299.22;4972484;28;20062;-79
2024/01/15 08:35:12;;;;;;;27.45;13.75;;;;;;;9.45;85.41;99293.94;4991522;28;20475;-79
2024/01/15 08:37:38;;;;;;;28.70;13.50;;;;;;;9.47;85.47;99300.03;5009731;28;20037;-79
2024/01/15 08:40:04;;;;;;;27.13;13.48;;;;;;;9.48;85.50;99302.63;5008777;28;20270;-79
2024/01/15 08:42:30;;;;;;;27.07;13.97;;;;;;;9.51;85.36;99309.63;4996599;28;20223;-79
2024/01/15 08:44:55;;;;;;;26.00;12.50;;;;;;;9.53;85.52;99304.34;4996153;28;20033;-79
2024/01/15 08:47:21;;;;;;;23.90;12.00;;;;;;;9.57;85.30;99311.28;4996476;28;20029;-79
2024/01/15 08:49:46;;;;;;;23.53;11.97;;;;;;;9.61;85.55;99303.31;4996383;28;20585;-79
2024/01/15 08:52:12;;;;;;;25.97;14.73;;;;;;;9.64;85.04;99302.41;4996397;28;20044;-79
2024/01/15 08:54:37;;;;;;;23.73;12.25;;;;;;;9.68;84.95;99298.84;4996552;28;20015;-79
2024/01/15 08:57:03;;;;;;;21.53;12.63;;;;;;;9.70;85.19;99285.69;4996708;28;20490;-79
2024/01/15 08:59:28;;;;;;;22.88;11.93;;;;;;;9.72;85.13;99274.22;4996487;28;20038;-79
2024/01/15 09:01:56;;;;;;;22.57;12.07;;;;;;;9.75;85.07;99284.69;4996549;28;20030;-79
2024/01/15 09:04:23;;;;;;;20.55;11.38;;;;;;;9.78;85.24;99289.03;4996399;28;20065;-79
2024/01/15 09:06:48;;;;;;;24.38;11.57;;;;;;;9.84;84.94;99290.72;4996133;28;20065;-79
2024/01/15 09:09:14;;;;;;;35.53;18.80;;;;;;;9.89;85.04;99302.00;4998280;28;20058;-79
2024/01/15 09:11:40;;;;;;;31.13;18.13;;;;;;;9.93;85.01;99303.69;4998835;28;20068;-79
2024/01/15 09:14:06;;;;;;;30.65;15.48;;;;;;;9.97;84.92;99294.84;4995574;28;20065;-79
2024/01/15 09:16:31;;;;;;;28.37;13.60;;;;;;;10.00;85.31;99297.41;4996291;28;20425;-79
2024/01/15 09:18:57;;;;;;;21.85;11.13;;;;;;;10.01;85.02;99306.19;4996410;28;20084;-79
2024/01/15 09:21:24;;;;;;;21.93;11.87;;;;;;;10.02;85.18;99298.28;4996563;28;20034;-79
2024/01/15 09:23:50;;;;;;;24.75;13.07;;;;;;;10.08;84.72;99302.53;4996606;28;20023;-79
2024/01/15 09:26:15;;;;;;;26.25;13.77;;;;;;;10.11;84.92;99299.84;4987006;28;20033;-80
2024/01/15 09:28:40;;;;;;;27.27;14.43;;;;;;;10.13;84.93;99305.09;4996129;28;20027;-79
2024/01/15 09:31:06;;;;;;;26.70;13.17;;;;;;;10.13;85.02;99306.00;4996132;28;20096;-79
2024/01/15 09:33:31;;;;;;;25.87;13.37;;;;;;;10.17;85.33;99307.66;4996181;28;20057;-79
2024/01/15 09:35:57;;;;;;;24.17;13.55;;;;;;;10.19;85.11;99305.88;5003145;28;20030;-79
2024/01/15 09:38:23;;;;;;;27.57;14.00;;;;;;;10.20;85.14;99299.72;5015944;28;20077;-79
2024/01/15 09:40:49;;;;;;;26.30;13.48;;;;;;;10.27;85.08;99304.84;5009651;28;20489;-79
2024/01/15 09:43:15;;;;;;;25.33;12.77;;;;;;;10.33;84.71;99294.22;4996281;28;20113;-78
2024/01/15 09:45:41;;;;;;;27.02;13.48;;;;;;;10.40;84.73;99302.88;4996053;28;20088;-79
2024/01/15 09:48:07;;;;;;;24.45;12.52;;;;;;;10.47;84.78;99310.66;4996021;28;20724;-78
2024/01/15 09:50:33;;;;;;;24.80;12.30;;;;;;;10.52;84.99;99302.69;4995290;28;20030;-79
2024/01/15 09:52:59;;;;;;;26.90;13.90;;;;;;;10.59;84.83;99309.53;4992537;28;20109;-79
2024/01/15 09:55:25;;;;;;;29.07;13.23;;;;;;;10.61;84.59;99306.91;4993060;28;20357;-78
2024/01/15 09:57:50;;;;;;;21.33;11.63;;;;;;;10.60;84.86;99315.66;4992934;28;20050;-79
2024/01/15 10:00:19;;;;;;;24.33;12.10;;;;;;;10.62;84.52;99317.38;4992698;28;20097;-79
2024/01/15 10:02:46;;;;;;;23.23;12.45;;;;;;;10.62;84.52;99314.75;4992920;28;20050;-79
2024/01/15 10:05:11;;;;;;;19.63;11.23;;;;;;;10.62;84.62;99313.91;4992661;28;20045;-79
2024/01/15 10:07:38;;;;;;;20.67;11.23;;;;;;;10.62;nan;99306.84;4992906;28;20022;-79
2024/01/15 10:10:03;;;;;;;23.60;11.80;;;;;;;10.67;84.40;99316.41;4992533;28;20060;-79
2024/01/15 10:12:29;;;;;;;21.95;10.98;;;;;;;10.69;84.83;99310.22;4992513;28;20058;-78
2024/01/15 10:14:56;;;;;;;22.80;12.17;;;;;;;10.73;84.53;99300.50;4992568;28;20023;-79
2024/01/15 10:17:21;;;;;;;21.85;10.55;;;;;;;10.76;84.58;99305.72;4992605;28;20045;-78
2024/01/15 10:19:47;;;;;;;22.30;10.57;;;;;;;10.77;84.59;99308.31;4992659;28;20034;-79
2024/01/15 10:22:15;;;;;;;19.63;10.52;;;;;;;10.83;84.56;99309.06;4992668;28;20026;-78
2024/01/15 10:24:41;;;;;;;20.83;11.23;;;;;;;10.86;84.25;99304.63;4999858;28;20029;-79
2024/01/15 10:27:07;;;;;;;21.60;10.90;;;;;;;10.89;84.42;99306.34;4993848;28;20034;-78
2024/01/15 10:29:33;;;;;;;27.30;11.90;;;;;;;10.91;84.44;99309.81;4992008;28;20034;-79
2024/01/15 10:31:59;;;;;;;25.23;12.50;;;;;;;10.91;84.14;99308.00;4992384;28;20030;-79
2024/01/15 10:34:25;;;;;;;23.52;11.90;;;;;;;10.90;84.14;99308.06;4992685;28;20079;-78
2024/01/15 10:36:55;;;;;;;21.33;11.70;;;;;;;10.93;84.50;99312.38;4996358;28;20475;-79
2024/01/15 10:39:21;;;;;;;19.70;10.37;;;;;;;10.94;84.46;99303.56;4992270;28;20041;-78
2024/01/15 10:41:47;;;;;;;18.10;10.02;;;;;;;10.94;84.16;99301.81;5010061;28;20414;-79
2024/01/15 10:44:12;;;;;;;20.73;11.07;;;;;;;10.97;84.30;99298.25;5011556;28;20033;-79
2024/01/15 10:46:38;;;;;;;21.77;11.23;;;;;;;11.00;84.02;99290.31;5011467;28;20036;-79
2024/01/15 10:49:04;;;;;;;17.85;10.27;;;;;;;10.98;83.97;99286.84;5011487;28;20041;-79
2024/01/15 10:51:30;;;;;;;21.53;11.80;;;;;;;10.99;84.19;99280.66;5011606;28;20026;-79
2024/01/15 10:53:57;;;;;;;18.38;11.00;;;;;;;10.99;84.10;99280.66;5011713;28;20410;-78
2024/01/15 10:56:23;;;;;;;22.65;12.10;;;;;;;10.98;84.43;99278.94;5011408;28;20038;-78
2024/01/15 10:58:50;;;;;;;24.63;12.10;;;;;;;10.99;84.44;99278.03;5011224;28;20026;-79
2024/01/15 11:01:17;;;;;;;20.17;11.60;;;;;;;11.01;84.85;99278.88;5011200;28;20533;-79
2024/01/15 11:03:43;;;;;;;19.13;11.00;;;;;;;11.02;84.67;99280.59;5011129;28;20034;-78
2024/01/15 11:06:21;;;;;;;21.95;11.75;;;;;;;11.05;84.68;99281.38;4994029;28;20134;-79
2024/01/15 11:08:50;;;;;;;20.73;11.60;;;;;;;11.05;84.75;99285.78;4991437;28;20030;-79
2024/01/15 11:11:21;;;;;;;21.73;12.60;;;;;;;11.07;84.57;99278.72;4991499;28;20062;-78
2024/01/15 11:13:49;;;;;;;21.37;11.37;;;;;;;11.09;84.78;99271.66;4991581;28;20037;-78
2024/01/15 11:16:15;;;;;;;20.92;10.75;;;;;;;11.12;84.35;99276.00;4991407;28;20261;-78
2024/01/15 11:19:02;;;;;;;18.63;10.65;;;;;;;11.13;84.80;99267.19;4991511;28;20053;-78
2024/01/15 11:21:29;;;;;;;19.85;10.40;;;;;;;11.17;84.60;99258.31;4973730;28;20022;-78